Authier, Canada
Current Conditions -  °F | °C
As of 4:19 PM on Thursday 20 Nov 2014 (Local Time) from CYUY Reporting Station
Light Snow Light Snow  
Wind Chill:   Ceiling: 3500
Heat Index: 18°   Visibility: 2.5mi
Dew Point: 14°   Wind: 9mph
Humidity: 86%   Direction: 320°NW
Pressure: 29.64"   Gusts: NA
Location:  48.72°N, 78.87°W
Report Text: CYUY 202119Z 32008KT 270V350 2 1/2SM -SN SCT013 BKN035 BKN080 M08/M10 A2964 RMK SC3SC3AS1 SLP058
Loading
Personal Weather Stations






























Interactive Weather Map New forecast layout! Learn more

10-Day Weather Forecast

Advertisements
Track Severe Weather on mobile